createdAt,value
2022-07-29T00:02:15.280Z,16.36
2022-07-29T00:04:41.969Z,16.28
2022-07-29T00:07:08.672Z,16.21
2022-07-29T00:09:50.445Z,16.34
2022-07-29T00:12:26.580Z,16.17
2022-07-29T00:14:57.734Z,16.27
2022-07-29T00:17:25.183Z,16.10
2022-07-29T00:19:52.100Z,16.17
2022-07-29T00:22:19.098Z,16.20
2022-07-29T00:24:45.713Z,16.17
2022-07-29T00:27:12.326Z,16.28
2022-07-29T00:29:38.877Z,16.21
2022-07-29T00:32:05.796Z,16.16
2022-07-29T00:34:51.397Z,16.26
2022-07-29T00:37:18.056Z,16.05
2022-07-29T00:39:44.760Z,16.16
2022-07-29T00:42:11.317Z,16.03
2022-07-29T00:44:42.318Z,16.07
2022-07-29T00:47:10.490Z,16.03
2022-07-29T00:49:37.627Z,16.12
2022-07-29T00:52:08.866Z,15.88
2022-07-29T00:54:37.412Z,15.98
2022-07-29T00:57:12.276Z,15.95
2022-07-29T00:59:38.835Z,15.88
2022-07-29T01:02:05.467Z,15.76
2022-07-29T01:04:33.056Z,15.91
2022-07-29T01:07:02.614Z,15.74
2022-07-29T01:09:42.187Z,15.78
2022-07-29T01:12:17.868Z,15.81
2022-07-29T01:14:45.529Z,15.86
2022-07-29T01:17:24.149Z,15.81
2022-07-29T01:20:31.572Z,15.91
2022-07-29T01:23:07.903Z,15.80
2022-07-29T01:25:56.077Z,15.83
2022-07-29T01:28:54.397Z,15.76
2022-07-29T01:31:27.339Z,15.79
2022-07-29T01:34:02.616Z,15.71
2022-07-29T01:36:35.981Z,15.70
2022-07-29T01:39:10.461Z,15.63
2022-07-29T01:41:45.087Z,15.65
2022-07-29T01:44:18.226Z,15.60
2022-07-29T01:46:51.880Z,15.61
2022-07-29T01:49:23.528Z,15.50
2022-07-29T01:51:58.411Z,15.54
2022-07-29T01:54:32.157Z,15.51
2022-07-29T01:57:00.951Z,15.52
2022-07-29T01:59:28.646Z,15.45
2022-07-29T02:01:58.417Z,15.48
2022-07-29T02:04:29.791Z,15.41
2022-07-29T02:07:02.758Z,15.39
2022-07-29T02:09:32.464Z,15.43
2022-07-29T02:12:02.189Z,15.40
2022-07-29T02:14:32.679Z,15.45
2022-07-29T02:17:01.621Z,15.35
2022-07-29T02:19:30.391Z,15.28
2022-07-29T02:21:58.590Z,15.23
2022-07-29T02:24:26.913Z,15.33
2022-07-29T02:26:56.150Z,15.20
2022-07-29T02:29:24.639Z,15.33
2022-07-29T02:31:53.708Z,15.37
2022-07-29T02:34:21.876Z,15.28
2022-07-29T02:36:50.628Z,15.27
2022-07-29T02:39:19.322Z,15.06
2022-07-29T02:41:49.069Z,15.05
2022-07-29T02:44:21.731Z,15.07
2022-07-29T02:46:56.023Z,15.14
2022-07-29T02:49:22.683Z,15.17
2022-07-29T02:51:59.301Z,15.05
2022-07-29T02:54:28.814Z,15.13
2022-07-29T02:56:58.987Z,15.10
2022-07-29T02:59:28.752Z,15.05
2022-07-29T03:01:56.755Z,15.00
2022-07-29T03:04:27.033Z,14.97
2022-07-29T03:06:54.559Z,14.86
2022-07-29T03:09:22.926Z,14.88
2022-07-29T03:11:50.954Z,14.87
2022-07-29T03:14:21.038Z,14.81
2022-07-29T03:16:49.445Z,14.75
2022-07-29T03:19:16.501Z,14.76
2022-07-29T03:21:43.077Z,14.84
2022-07-29T03:24:10.690Z,14.84
2022-07-29T03:26:37.944Z,14.81
2022-07-29T03:29:04.558Z,14.75
2022-07-29T03:31:32.128Z,14.80
2022-07-29T03:34:00.283Z,14.78
2022-07-29T03:36:26.898Z,14.68
2022-07-29T03:38:53.857Z,14.62
2022-07-29T03:41:23.497Z,14.69
2022-07-29T03:43:52.537Z,14.72
2022-07-29T03:46:23.590Z,14.80
2022-07-29T03:48:53.697Z,14.89
2022-07-29T03:51:33.348Z,14.75
2022-07-29T03:54:09.850Z,14.68
2022-07-29T03:56:41.161Z,14.68
2022-07-29T03:59:08.621Z,14.57
2022-07-29T04:01:36.378Z,14.56
2022-07-29T04:04:03.785Z,14.57
2022-07-29T04:06:30.441Z,14.57
2022-07-29T04:08:57.033Z,14.48
2022-07-29T04:11:23.844Z,14.43
2022-07-29T04:13:50.431Z,14.50
2022-07-29T04:16:17.050Z,14.44
2022-07-29T04:18:43.709Z,14.51
2022-07-29T04:21:10.219Z,14.45
2022-07-29T04:23:36.792Z,14.53
2022-07-29T04:26:20.932Z,14.55
2022-07-29T04:28:47.581Z,14.47
2022-07-29T04:31:14.391Z,14.46
2022-07-29T04:33:41.001Z,14.37
2022-07-29T04:36:07.581Z,14.44
2022-07-29T04:38:54.062Z,14.37
2022-07-29T04:41:20.850Z,14.45
2022-07-29T04:43:47.968Z,14.56
2022-07-29T04:46:15.070Z,14.38
2022-07-29T04:48:41.766Z,14.52
2022-07-29T04:51:08.422Z,14.38
2022-07-29T04:53:34.964Z,14.43
2022-07-29T04:56:01.540Z,14.44
2022-07-29T04:58:28.085Z,14.52
2022-07-29T05:00:54.736Z,14.49
2022-07-29T05:03:21.495Z,14.59
2022-07-29T05:05:48.080Z,14.47
2022-07-29T05:08:14.744Z,14.63
2022-07-29T05:10:41.320Z,14.58
2022-07-29T05:13:08.631Z,14.76
2022-07-29T05:15:36.859Z,14.65
2022-07-29T05:18:04.607Z,14.78
2022-07-29T05:20:31.851Z,14.77
2022-07-29T05:22:59.689Z,14.64
2022-07-29T05:25:43.032Z,14.60
2022-07-29T05:28:11.771Z,14.64
2022-07-29T05:30:38.413Z,14.76
2022-07-29T05:33:05.083Z,14.73
2022-07-29T05:35:31.695Z,14.73
2022-07-29T05:37:58.271Z,14.79
2022-07-29T05:40:24.968Z,14.77
2022-07-29T05:42:51.540Z,14.80
2022-07-29T05:45:18.187Z,14.75
2022-07-29T05:47:44.820Z,14.92
2022-07-29T05:50:11.595Z,15.08
2022-07-29T05:52:38.195Z,15.19
2022-07-29T05:55:06.534Z,14.93
2022-07-29T05:57:33.229Z,14.96
2022-07-29T05:59:59.893Z,15.24
2022-07-29T06:02:26.789Z,15.30
2022-07-29T06:04:53.601Z,15.26
2022-07-29T06:07:20.394Z,15.23
2022-07-29T06:09:46.962Z,15.44
2022-07-29T06:12:13.606Z,15.83
2022-07-29T06:14:40.175Z,16.52
2022-07-29T06:17:06.847Z,16.42
2022-07-29T06:19:37.247Z,16.84
2022-07-29T06:22:04.474Z,16.22
2022-07-29T06:24:31.739Z,16.54
2022-07-29T06:26:58.450Z,16.43
2022-07-29T06:29:25.341Z,16.09
2022-07-29T06:31:51.966Z,16.15
2022-07-29T06:34:18.959Z,16.85
2022-07-29T06:36:46.368Z,16.98
2022-07-29T06:39:13.410Z,16.88
2022-07-29T06:41:40.078Z,17.21
2022-07-29T06:44:06.672Z,16.93
2022-07-29T06:46:33.761Z,17.52
2022-07-29T06:49:02.546Z,17.05
2022-07-29T06:51:30.293Z,18.07
2022-07-29T06:54:02.350Z,18.28
2022-07-29T06:56:45.185Z,17.91
2022-07-29T06:59:13.373Z,18.69
2022-07-29T07:01:42.810Z,17.72
2022-07-29T07:04:11.794Z,18.99
2022-07-29T07:06:38.826Z,19.75
2022-07-29T07:09:05.687Z,18.55
2022-07-29T07:11:32.232Z,18.96
2022-07-29T07:14:03.046Z,18.62
2022-07-29T07:16:30.362Z,18.27
2022-07-29T07:18:56.979Z,17.98
2022-07-29T07:21:23.626Z,17.89
2022-07-29T07:23:50.172Z,17.93
2022-07-29T07:26:16.735Z,18.41
2022-07-29T07:28:43.347Z,18.31
2022-07-29T07:31:10.559Z,19.46
2022-07-29T07:33:37.197Z,19.02
2022-07-29T07:36:03.953Z,19.26
2022-07-29T07:38:30.755Z,19.84
2022-07-29T07:40:57.402Z,19.83
2022-07-29T07:43:24.006Z,20.03
2022-07-29T07:45:50.798Z,18.88
2022-07-29T07:48:17.534Z,20.09
2022-07-29T07:50:44.858Z,19.19
2022-07-29T07:53:11.743Z,19.23
2022-07-29T07:56:09.298Z,19.33
2022-07-29T07:58:31.677Z,19.98
2022-07-29T08:00:58.327Z,19.44
2022-07-29T08:03:24.949Z,19.87
2022-07-29T08:05:55.322Z,20.01
2022-07-29T08:08:22.102Z,19.46
2022-07-29T08:10:56.338Z,20.68
2022-07-29T08:13:26.145Z,21.51
2022-07-29T08:15:58.912Z,21.04
2022-07-29T08:18:26.984Z,20.85
2022-07-29T08:20:53.758Z,20.02
2022-07-29T08:23:20.657Z,21.53
2022-07-29T08:25:47.377Z,20.76
2022-07-29T08:28:17.693Z,20.79
2022-07-29T08:30:44.274Z,21.04
2022-07-29T08:33:10.902Z,20.88
2022-07-29T08:35:37.602Z,20.59
2022-07-29T08:38:04.481Z,20.94
2022-07-29T08:40:32.376Z,21.45
2022-07-29T08:43:00.827Z,20.21
2022-07-29T08:45:29.426Z,20.80
2022-07-29T08:47:56.611Z,21.27
2022-07-29T08:50:24.855Z,21.76
2022-07-29T08:52:55.392Z,22.58
2022-07-29T08:55:24.758Z,21.86
2022-07-29T08:57:54.275Z,21.56
2022-07-29T09:00:23.280Z,22.44
2022-07-29T09:02:57.020Z,21.82
2022-07-29T09:05:25.062Z,22.69
2022-07-29T09:07:52.514Z,22.73
2022-07-29T09:10:19.619Z,22.74
2022-07-29T09:12:46.787Z,22.96
2022-07-29T09:15:13.376Z,22.11
2022-07-29T09:17:48.380Z,22.52
2022-07-29T09:20:25.694Z,21.66
2022-07-29T09:22:56.153Z,21.74
2022-07-29T09:25:39.950Z,21.85
2022-07-29T09:28:07.189Z,22.42
2022-07-29T09:30:34.398Z,23.33
2022-07-29T09:33:03.685Z,23.73
2022-07-29T09:35:31.714Z,22.40
2022-07-29T09:37:58.761Z,23.36
2022-07-29T09:40:28.341Z,23.81
2022-07-29T09:42:58.306Z,22.67
2022-07-29T09:45:33.610Z,22.97
2022-07-29T09:48:14.001Z,23.14
2022-07-29T09:50:42.481Z,22.72
2022-07-29T09:53:12.528Z,23.86
2022-07-29T09:55:52.048Z,22.83
2022-07-29T09:58:21.032Z,22.34
2022-07-29T10:00:49.460Z,22.33
2022-07-29T10:03:17.390Z,22.45
2022-07-29T10:05:44.912Z,22.60
2022-07-29T10:08:13.391Z,22.86
2022-07-29T10:10:43.299Z,23.21
2022-07-29T10:13:15.989Z,23.61
2022-07-29T10:15:46.051Z,22.45
2022-07-29T10:18:18.481Z,22.57
2022-07-29T10:20:45.394Z,23.33
2022-07-29T10:23:12.093Z,23.09
2022-07-29T10:25:38.750Z,23.71
2022-07-29T10:28:06.727Z,23.13
2022-07-29T10:30:33.706Z,22.95
2022-07-29T10:33:28.460Z,23.25
2022-07-29T10:36:13.130Z,23.07
2022-07-29T10:42:04.419Z,23.22
2022-07-29T10:44:32.204Z,23.35
2022-07-29T10:46:58.961Z,23.49
2022-07-29T10:49:30.340Z,23.36
2022-07-29T10:52:05.877Z,23.54
2022-07-29T10:54:44.118Z,23.54
2022-07-29T10:57:16.755Z,23.06
2022-07-29T10:59:46.251Z,23.39
2022-07-29T11:02:41.669Z,23.90
2022-07-29T11:05:22.126Z,24.07
2022-07-29T11:08:19.612Z,23.36
2022-07-29T11:10:48.050Z,23.88
2022-07-29T11:13:44.375Z,23.67
2022-07-29T11:16:11.334Z,23.59
2022-07-29T11:19:13.080Z,23.88
2022-07-29T11:21:55.247Z,23.59
2022-07-29T11:24:35.724Z,24.10
2022-07-29T11:27:23.172Z,23.84
2022-07-29T11:29:58.474Z,23.91
2022-07-29T11:32:29.530Z,24.06
2022-07-29T11:35:17.208Z,23.68
2022-07-29T11:37:52.821Z,23.53
2022-07-29T11:40:22.956Z,23.53
2022-07-29T11:42:52.247Z,23.89
2022-07-29T11:45:42.697Z,24.12
2022-07-29T11:48:28.383Z,24.00
2022-07-29T11:50:58.374Z,24.58
2022-07-29T11:53:25.846Z,24.65
2022-07-29T11:55:58.271Z,24.78
2022-07-29T11:58:26.235Z,24.58
2022-07-29T12:00:55.326Z,24.46
2022-07-29T12:03:34.826Z,24.90
2022-07-29T12:06:13.644Z,24.98
2022-07-29T12:08:44.461Z,24.79
2022-07-29T12:11:20.456Z,24.44
2022-07-29T12:13:47.549Z,24.55
2022-07-29T12:16:16.044Z,24.44
2022-07-29T12:19:03.067Z,23.88
2022-07-29T12:21:45.722Z,24.19
2022-07-29T12:24:22.592Z,24.47
2022-07-29T12:27:00.003Z,23.92
2022-07-29T12:29:35.030Z,23.59
2022-07-29T12:32:02.384Z,24.43
2022-07-29T12:34:30.304Z,24.16
2022-07-29T12:36:57.065Z,24.75
2022-07-29T12:39:27.348Z,24.53
2022-07-29T12:41:54.305Z,24.58
2022-07-29T12:44:52.209Z,25.05
2022-07-29T12:47:20.111Z,23.91
2022-07-29T12:49:47.910Z,24.40
2022-07-29T12:52:34.976Z,25.10
2022-07-29T12:55:02.443Z,25.55
2022-07-29T12:57:29.738Z,25.33
2022-07-29T13:00:09.138Z,25.32
2022-07-29T13:02:35.991Z,25.99
2022-07-29T13:05:05.771Z,25.45
2022-07-29T13:07:55.254Z,25.42
2022-07-29T13:10:24.135Z,25.75
2022-07-29T13:13:12.233Z,26.17
2022-07-29T13:15:40.942Z,25.26
2022-07-29T13:18:31.080Z,26.08
2022-07-29T13:20:58.407Z,25.11
2022-07-29T13:23:24.962Z,24.98
2022-07-29T13:25:51.550Z,26.53
2022-07-29T13:28:18.715Z,25.65
2022-07-29T13:30:45.389Z,24.65
2022-07-29T13:33:12.001Z,25.09
2022-07-29T13:35:39.937Z,24.96
2022-07-29T13:38:06.930Z,26.17
2022-07-29T13:40:36.321Z,25.81
2022-07-29T13:43:03.065Z,25.95
2022-07-29T13:45:30.670Z,26.29
2022-07-29T13:47:57.263Z,25.98
2022-07-29T13:50:23.909Z,26.99
2022-07-29T13:52:51.697Z,26.65
2022-07-29T13:55:18.423Z,26.69
2022-07-29T13:57:45.128Z,27.06
2022-07-29T14:00:13.023Z,27.53
2022-07-29T14:02:39.759Z,27.66
2022-07-29T14:05:08.651Z,27.78
2022-07-29T14:07:35.498Z,27.02
2022-07-29T14:10:02.232Z,26.77
2022-07-29T14:12:28.779Z,27.42
2022-07-29T14:14:55.303Z,27.03
2022-07-29T14:17:22.013Z,27.67
2022-07-29T14:19:48.878Z,25.81
2022-07-29T14:22:15.610Z,26.27
2022-07-29T14:24:43.035Z,26.73
2022-07-29T14:27:09.630Z,27.03
2022-07-29T14:29:37.945Z,26.30
2022-07-29T14:32:08.749Z,27.47
2022-07-29T14:34:36.417Z,27.10
2022-07-29T14:37:06.066Z,27.34
2022-07-29T14:39:32.798Z,26.14
2022-07-29T14:42:00.318Z,25.13
2022-07-29T14:44:32.178Z,25.56
2022-07-29T14:47:07.619Z,26.33
2022-07-29T14:49:34.562Z,26.02
2022-07-29T14:52:01.396Z,27.08
2022-07-29T14:54:28.253Z,26.95
2022-07-29T14:56:57.915Z,25.98
2022-07-29T14:59:24.768Z,26.23
2022-07-29T15:01:51.345Z,26.49
2022-07-29T15:04:17.949Z,26.57
2022-07-29T15:06:44.811Z,25.82
2022-07-29T15:09:11.668Z,26.38
2022-07-29T15:11:38.855Z,27.14
2022-07-29T15:14:06.748Z,26.20
2022-07-29T15:16:34.125Z,26.10
2022-07-29T15:19:01.853Z,26.45
2022-07-29T15:21:28.721Z,26.65
2022-07-29T15:23:55.511Z,26.28
2022-07-29T15:26:22.168Z,26.93
2022-07-29T15:28:49.054Z,25.63
2022-07-29T15:31:15.778Z,26.77
2022-07-29T15:33:42.534Z,26.98
2022-07-29T15:36:09.329Z,26.89
2022-07-29T15:38:36.076Z,26.81
2022-07-29T15:41:08.704Z,26.26
2022-07-29T15:43:36.240Z,26.13
2022-07-29T15:46:21.824Z,26.07
2022-07-29T15:48:48.611Z,27.04
2022-07-29T15:51:15.294Z,27.16
2022-07-29T15:53:41.941Z,26.42
2022-07-29T15:56:08.510Z,26.92
2022-07-29T15:58:35.113Z,26.09
2022-07-29T16:01:01.889Z,25.94
2022-07-29T16:03:28.664Z,25.24
2022-07-29T16:05:55.370Z,25.76
2022-07-29T16:08:22.008Z,25.89
2022-07-29T16:10:48.619Z,25.64
2022-07-29T16:13:18.749Z,25.99
2022-07-29T16:15:46.308Z,26.16
2022-07-29T16:18:30.270Z,25.93
2022-07-29T16:20:57.274Z,25.88
2022-07-29T16:23:24.783Z,25.48
2022-07-29T16:25:59.777Z,26.03
2022-07-29T16:28:28.360Z,25.54
2022-07-29T16:30:54.977Z,25.05
2022-07-29T16:33:21.719Z,24.45
2022-07-29T16:35:48.297Z,24.24
2022-07-29T16:38:14.985Z,24.45
2022-07-29T16:40:41.682Z,24.13
2022-07-29T16:43:08.890Z,24.22
2022-07-29T16:45:45.297Z,23.59
2022-07-29T16:48:13.489Z,23.40
2022-07-29T16:50:41.223Z,23.70
2022-07-29T16:53:10.538Z,23.76
2022-07-29T16:55:37.054Z,23.83
2022-07-29T16:58:03.677Z,23.69
2022-07-29T17:00:30.385Z,23.73
2022-07-29T17:02:57.070Z,23.62
2022-07-29T17:05:23.746Z,23.39
2022-07-29T17:07:50.240Z,23.32
2022-07-29T17:10:16.858Z,23.25
2022-07-29T17:12:43.479Z,22.91
2022-07-29T17:15:11.426Z,23.04
2022-07-29T17:17:55.407Z,23.31
2022-07-29T17:20:24.032Z,23.12
2022-07-29T17:22:50.573Z,22.98
2022-07-29T17:25:20.646Z,22.93
2022-07-29T17:27:49.610Z,22.89
2022-07-29T17:30:16.356Z,22.76
2022-07-29T17:32:42.924Z,22.76
2022-07-29T17:35:28.408Z,22.82
2022-07-29T17:37:55.981Z,22.54
2022-07-29T17:40:22.739Z,22.55
2022-07-29T17:42:49.620Z,22.74
2022-07-29T17:45:17.651Z,22.57
2022-07-29T17:47:45.103Z,22.58
2022-07-29T17:50:11.684Z,22.61
2022-07-29T17:52:39.174Z,22.66
2022-07-29T17:55:07.273Z,22.60
2022-07-29T17:57:34.112Z,22.50
2022-07-29T18:00:00.658Z,22.55
2022-07-29T18:02:28.339Z,22.49
2022-07-29T18:04:55.224Z,22.30
2022-07-29T18:07:21.829Z,22.04
2022-07-29T18:09:48.479Z,22.03
2022-07-29T18:12:15.084Z,21.70
2022-07-29T18:14:41.739Z,21.73
2022-07-29T18:17:08.678Z,21.65
2022-07-29T18:19:35.311Z,21.50
2022-07-29T18:22:05.175Z,21.65
2022-07-29T18:24:32.520Z,21.61
2022-07-29T18:26:59.425Z,21.60
2022-07-29T18:29:28.927Z,21.63
2022-07-29T18:31:56.228Z,21.80
2022-07-29T18:34:22.862Z,21.46
2022-07-29T18:36:49.423Z,21.54
2022-07-29T18:39:20.513Z,21.24
2022-07-29T18:41:50.201Z,21.23
2022-07-29T18:44:21.909Z,21.04
2022-07-29T18:46:50.128Z,20.95
2022-07-29T18:49:16.850Z,21.00
2022-07-29T18:51:43.502Z,21.11
2022-07-29T18:54:10.998Z,20.98
2022-07-29T18:56:37.882Z,20.93
2022-07-29T18:59:05.139Z,21.01
2022-07-29T19:01:32.282Z,21.08
2022-07-29T19:03:59.211Z,20.78
2022-07-29T19:06:26.182Z,20.90
2022-07-29T19:08:53.300Z,20.85
2022-07-29T19:11:19.974Z,20.73
2022-07-29T19:13:46.524Z,20.48
2022-07-29T19:16:14.079Z,20.49
2022-07-29T19:18:41.618Z,20.38
2022-07-29T19:21:08.261Z,20.23
2022-07-29T19:24:00.721Z,20.03
2022-07-29T19:26:21.384Z,20.22
2022-07-29T19:28:49.071Z,19.94
2022-07-29T19:31:16.088Z,19.78
2022-07-29T19:33:42.846Z,19.83
2022-07-29T19:36:09.474Z,19.85
2022-07-29T19:38:38.181Z,19.90
2022-07-29T19:41:06.199Z,19.60
2022-07-29T19:43:50.887Z,19.66
2022-07-29T19:46:19.787Z,19.49
2022-07-29T19:48:46.499Z,19.45
2022-07-29T19:51:13.071Z,19.38
2022-07-29T19:53:39.801Z,19.25
2022-07-29T19:56:06.374Z,19.16
2022-07-29T19:58:36.050Z,19.07
2022-07-29T20:01:02.813Z,19.13
2022-07-29T20:03:39.780Z,19.05
2022-07-29T20:06:06.747Z,18.88
2022-07-29T20:08:33.383Z,18.70
2022-07-29T20:10:59.920Z,18.69
2022-07-29T20:13:26.569Z,18.52
2022-07-29T20:15:53.321Z,18.54
2022-07-29T20:18:20.050Z,18.52
2022-07-29T20:20:48.127Z,18.55
2022-07-29T20:23:14.855Z,18.55
2022-07-29T20:25:41.696Z,18.39
2022-07-29T20:28:08.328Z,18.32
2022-07-29T20:30:34.922Z,18.32
2022-07-29T20:33:05.440Z,18.27
2022-07-29T20:35:32.024Z,18.11
2022-07-29T20:37:59.779Z,18.10
2022-07-29T20:40:27.425Z,18.11
2022-07-29T20:42:54.529Z,18.05
2022-07-29T20:45:21.726Z,18.08
2022-07-29T20:47:48.282Z,17.96
2022-07-29T20:50:14.972Z,17.90
2022-07-29T20:52:43.363Z,17.87
2022-07-29T20:55:10.582Z,17.97
2022-07-29T20:57:38.998Z,17.88
2022-07-29T21:00:07.538Z,17.81
2022-07-29T21:02:34.524Z,17.82
2022-07-29T21:05:01.174Z,17.85
2022-07-29T21:07:27.842Z,17.88
2022-07-29T21:09:54.475Z,17.83
2022-07-29T21:12:21.221Z,17.73
2022-07-29T21:14:48.147Z,17.73
2022-07-29T21:17:15.940Z,17.71
2022-07-29T21:19:42.959Z,17.71
2022-07-29T21:22:09.861Z,17.78
2022-07-29T21:24:36.547Z,17.78
2022-07-29T21:27:22.034Z,17.75
2022-07-29T21:29:49.244Z,17.78
2022-07-29T21:32:27.471Z,17.68
2022-07-29T21:34:56.403Z,17.80
2022-07-29T21:37:23.007Z,17.72
2022-07-29T21:39:49.560Z,17.67
2022-07-29T21:42:16.214Z,17.68
2022-07-29T21:44:42.849Z,17.78
2022-07-29T21:47:10.667Z,17.69
2022-07-29T21:49:37.670Z,17.71
2022-07-29T21:52:05.011Z,17.75
2022-07-29T21:54:31.589Z,17.70
2022-07-29T21:56:58.554Z,17.77
2022-07-29T21:59:27.575Z,17.74
2022-07-29T22:01:54.339Z,17.65
2022-07-29T22:04:21.215Z,17.51
2022-07-29T22:06:47.845Z,17.52
2022-07-29T22:09:14.428Z,17.51
2022-07-29T22:11:42.002Z,17.32
2022-07-29T22:14:08.545Z,17.31
2022-07-29T22:16:35.294Z,17.37
2022-07-29T22:19:03.806Z,17.32
2022-07-29T22:21:30.887Z,17.41
2022-07-29T22:23:57.901Z,17.34
2022-07-29T22:26:24.523Z,17.32
2022-07-29T22:28:51.113Z,17.05
2022-07-29T22:31:17.708Z,17.11
2022-07-29T22:33:44.379Z,17.19
2022-07-29T22:36:10.975Z,17.16
2022-07-29T22:38:37.613Z,17.13
2022-07-29T22:41:04.230Z,17.08
2022-07-29T22:43:30.878Z,17.20
2022-07-29T22:45:57.468Z,17.17
2022-07-29T22:48:24.062Z,17.25
2022-07-29T22:50:50.591Z,17.12
2022-07-29T22:53:17.185Z,17.00
2022-07-29T22:55:45.476Z,16.96
2022-07-29T22:58:12.114Z,16.92
2022-07-29T23:00:38.796Z,16.84
2022-07-29T23:03:05.400Z,16.79
2022-07-29T23:05:32.658Z,16.69
2022-07-29T23:07:59.790Z,16.58
2022-07-29T23:10:26.537Z,16.61
2022-07-29T23:12:53.147Z,16.56
2022-07-29T23:15:19.834Z,16.64
2022-07-29T23:17:46.407Z,16.75
2022-07-29T23:20:14.759Z,16.65
2022-07-29T23:22:41.797Z,16.59
2022-07-29T23:25:08.828Z,16.60
2022-07-29T23:27:35.811Z,16.53
2022-07-29T23:30:04.498Z,16.51
2022-07-29T23:32:31.139Z,16.43
2022-07-29T23:34:57.729Z,16.47
2022-07-29T23:37:24.389Z,16.44
2022-07-29T23:39:53.735Z,16.44
2022-07-29T23:42:20.299Z,16.43
2022-07-29T23:44:46.884Z,16.40
2022-07-29T23:47:13.781Z,16.35
2022-07-29T23:49:40.408Z,16.36
2022-07-29T23:52:07.051Z,16.20
2022-07-29T23:54:33.591Z,16.35
2022-07-29T23:57:00.457Z,16.25
2022-07-29T23:59:27.269Z,16.21
